createdAt,value
2023-05-10T00:01:37.627Z,79.00
2023-05-10T00:06:34.009Z,75.30
2023-05-10T00:11:29.807Z,69.20
2023-05-10T00:13:58.196Z,64.80
2023-05-10T00:16:26.530Z,70.60
2023-05-10T00:18:54.858Z,73.20
2023-05-10T00:21:23.269Z,67.20
2023-05-10T00:23:51.673Z,72.40
2023-05-10T00:26:20.280Z,73.00
2023-05-10T00:28:50.039Z,67.30
2023-05-10T00:31:20.262Z,70.30
2023-05-10T00:33:48.566Z,75.40
2023-05-10T00:36:16.839Z,76.80
2023-05-10T00:38:45.305Z,69.20
2023-05-10T00:41:13.688Z,74.20
2023-05-10T00:43:42.897Z,73.10
2023-05-10T00:46:11.762Z,77.90
2023-05-10T00:48:40.197Z,75.60
2023-05-10T00:51:08.687Z,56.90
2023-05-10T00:56:05.802Z,57.40
2023-05-10T00:58:34.452Z,56.70
2023-05-10T01:01:03.073Z,54.70
2023-05-10T01:03:31.638Z,55.70
2023-05-10T01:08:28.373Z,46.30
2023-05-10T01:10:57.861Z,51.50
2023-05-10T01:13:34.028Z,50.10
2023-05-10T01:16:03.562Z,46.80
2023-05-10T01:18:32.665Z,56.60
2023-05-10T01:21:20.395Z,49.20
2023-05-10T01:24:23.507Z,39.10
2023-05-10T01:27:20.120Z,40.50
2023-05-10T01:30:31.593Z,43.10
2023-05-10T01:33:02.820Z,44.30
2023-05-10T01:35:36.655Z,46.60
2023-05-10T01:38:14.308Z,40.40
2023-05-10T01:40:52.442Z,46.80
2023-05-10T01:43:25.612Z,40.60
2023-05-10T01:46:04.859Z,45.70
2023-05-10T01:48:34.051Z,48.40
2023-05-10T01:51:02.618Z,38.90
2023-05-10T01:55:59.170Z,45.10
2023-05-10T01:58:30.757Z,49.20
2023-05-10T02:01:01.340Z,44.60
2023-05-10T02:03:29.996Z,49.50
2023-05-10T02:05:59.288Z,39.00
2023-05-10T02:08:27.947Z,45.70
2023-05-10T02:10:59.274Z,40.80
2023-05-10T02:13:28.927Z,49.70
2023-05-10T02:15:58.343Z,42.20
2023-05-10T02:18:27.371Z,40.10
2023-05-10T02:20:56.252Z,44.90
2023-05-10T02:23:24.866Z,37.10
2023-05-10T02:28:23.069Z,41.90
2023-05-10T02:30:52.434Z,36.00
2023-05-10T02:33:21.548Z,38.90
2023-05-10T02:35:51.920Z,39.70
2023-05-10T02:38:21.904Z,39.10
2023-05-10T02:40:50.354Z,47.10
2023-05-10T02:43:19.924Z,39.50
2023-05-10T02:45:49.680Z,41.90
2023-05-10T02:48:18.247Z,45.00
2023-05-10T02:53:18.164Z,44.80
2023-05-10T02:55:49.642Z,36.10
2023-05-10T02:58:19.899Z,48.50
2023-05-10T03:00:48.713Z,38.10
2023-05-10T03:03:17.161Z,40.10
2023-05-10T03:05:45.558Z,42.60
2023-05-10T03:08:13.966Z,51.40
2023-05-10T03:10:49.617Z,38.70
2023-05-10T03:13:29.486Z,37.50
2023-05-10T03:16:00.744Z,40.40
2023-05-10T03:18:38.012Z,40.80
2023-05-10T03:21:10.956Z,42.60
2023-05-10T03:23:42.989Z,36.60
2023-05-10T03:26:14.421Z,41.70
2023-05-10T03:28:43.541Z,44.60
2023-05-10T03:31:12.406Z,38.30
2023-05-10T03:33:48.944Z,54.40
2023-05-10T03:36:18.550Z,43.40
2023-05-10T03:38:47.360Z,46.90
2023-05-10T03:41:16.571Z,52.00
2023-05-10T03:43:45.040Z,60.30
2023-05-10T03:46:13.461Z,60.10
2023-05-10T03:48:41.859Z,47.30
2023-05-10T03:51:10.219Z,48.10
2023-05-10T03:53:38.472Z,47.90
2023-05-10T03:56:07.554Z,38.00
2023-05-10T04:01:03.867Z,48.70
2023-05-10T04:03:32.263Z,45.00
2023-05-10T04:06:02.867Z,47.90
2023-05-10T04:08:31.865Z,58.70
2023-05-10T04:11:07.865Z,42.90
2023-05-10T04:13:36.459Z,43.50
2023-05-10T04:16:05.768Z,40.90
2023-05-10T04:18:34.211Z,43.20
2023-05-10T04:21:03.002Z,41.50
2023-05-10T04:23:31.415Z,34.60
2023-05-10T04:26:03.132Z,43.50
2023-05-10T04:28:31.531Z,39.00
2023-05-10T04:31:03.558Z,39.20
2023-05-10T04:33:32.350Z,38.00
2023-05-10T04:36:01.066Z,39.70
2023-05-10T04:38:29.856Z,39.30
2023-05-10T04:41:06.664Z,45.90
2023-05-10T04:43:35.233Z,39.40
2023-05-10T04:46:04.455Z,43.00
2023-05-10T04:48:32.913Z,36.40
2023-05-10T04:51:01.504Z,35.70
2023-05-10T04:53:29.780Z,35.70
2023-05-10T04:55:58.356Z,38.60
2023-05-10T04:58:26.834Z,38.80
2023-05-10T05:03:22.913Z,36.10
2023-05-10T05:05:51.365Z,39.90
2023-05-10T05:10:47.577Z,40.50
2023-05-10T05:13:15.994Z,39.40
2023-05-10T05:15:44.405Z,42.80
2023-05-10T05:20:40.883Z,36.70
2023-05-10T05:23:09.281Z,34.60
2023-05-10T05:28:05.715Z,35.00
2023-05-10T05:30:34.088Z,39.10
2023-05-10T05:33:04.109Z,34.40
2023-05-10T05:35:32.405Z,38.00
2023-05-10T05:40:28.442Z,33.50
2023-05-10T05:42:56.949Z,39.40
2023-05-10T05:45:25.532Z,36.80
2023-05-10T05:47:53.904Z,33.40
2023-05-10T05:50:22.364Z,26.20
2023-05-10T05:52:50.750Z,44.50
2023-05-10T05:55:20.699Z,25.70
2023-05-10T05:57:49.439Z,25.30
2023-05-10T06:00:18.915Z,36.60
2023-05-10T06:02:48.203Z,37.80
2023-05-10T06:05:17.342Z,30.20
2023-05-10T06:07:46.357Z,41.30
2023-05-10T06:10:14.711Z,26.10
2023-05-10T06:12:43.048Z,35.60
2023-05-10T06:15:12.831Z,34.60
2023-05-10T06:17:41.249Z,28.40
2023-05-10T06:20:11.928Z,27.80
2023-05-10T06:22:40.334Z,25.10
2023-05-10T06:25:10.825Z,28.40
2023-05-10T06:27:39.190Z,32.80
2023-05-10T06:30:15.123Z,27.40
2023-05-10T06:32:45.391Z,28.30
2023-05-10T06:35:13.945Z,16.40
2023-05-10T06:37:42.246Z,25.20
2023-05-10T06:40:12.228Z,23.60
2023-05-10T06:42:40.607Z,27.50
2023-05-10T06:45:11.004Z,22.50
2023-05-10T06:47:39.725Z,27.10
2023-05-10T06:50:09.607Z,24.80
2023-05-10T06:52:38.308Z,21.50
2023-05-10T06:55:08.720Z,23.10
2023-05-10T06:57:37.333Z,25.50
2023-05-10T07:00:08.160Z,21.40
2023-05-10T07:02:36.680Z,16.50
2023-05-10T07:05:06.314Z,21.60
2023-05-10T07:07:34.627Z,25.80
2023-05-10T07:10:03.354Z,18.80
2023-05-10T07:12:31.841Z,18.30
2023-05-10T07:15:00.166Z,23.80
2023-05-10T07:17:28.691Z,19.90
2023-05-10T07:19:57.043Z,16.80
2023-05-10T07:22:25.497Z,19.40
2023-05-10T07:24:54.042Z,21.60
2023-05-10T07:27:22.428Z,24.50
2023-05-10T07:29:50.939Z,21.90
2023-05-10T07:32:19.271Z,23.70
2023-05-10T07:34:47.687Z,23.80
2023-05-10T07:37:16.044Z,17.40
2023-05-10T07:39:44.368Z,19.00
2023-05-10T07:42:14.060Z,21.90
2023-05-10T07:44:42.527Z,20.80
2023-05-10T07:47:11.303Z,22.10
2023-05-10T07:49:39.694Z,17.00
2023-05-10T07:52:08.099Z,26.60
2023-05-10T07:54:36.452Z,22.70
2023-05-10T07:57:05.158Z,19.70
2023-05-10T07:59:33.879Z,20.60
2023-05-10T08:02:02.309Z,20.30
2023-05-10T08:04:30.616Z,25.50
2023-05-10T08:06:59.044Z,20.60
2023-05-10T08:09:27.324Z,20.90
2023-05-10T08:11:55.680Z,20.60
2023-05-10T08:14:23.966Z,20.00
2023-05-10T08:16:52.362Z,18.30
2023-05-10T08:19:21.703Z,24.00
2023-05-10T08:21:50.168Z,24.60
2023-05-10T08:24:18.764Z,20.20
2023-05-10T08:26:47.980Z,21.30
2023-05-10T08:29:16.351Z,20.50
2023-05-10T08:31:45.603Z,16.80
2023-05-10T08:34:13.964Z,21.70
2023-05-10T08:36:42.578Z,19.40
2023-05-10T08:39:22.830Z,22.30
2023-05-10T08:42:00.455Z,21.50
2023-05-10T08:44:29.294Z,24.10
2023-05-10T08:46:58.180Z,23.00
2023-05-10T08:49:27.079Z,18.20
2023-05-10T08:51:56.765Z,25.30
2023-05-10T08:54:25.837Z,18.80
2023-05-10T08:56:54.806Z,17.50
2023-05-10T08:59:24.013Z,20.80
2023-05-10T09:01:53.914Z,17.40
2023-05-10T09:04:22.492Z,21.30
2023-05-10T09:06:51.032Z,21.70
2023-05-10T09:09:19.462Z,21.90
2023-05-10T09:11:48.427Z,27.00
2023-05-10T09:14:17.602Z,16.80
2023-05-10T09:16:46.249Z,21.50
2023-05-10T09:19:15.270Z,23.60
2023-05-10T09:21:43.605Z,17.50
2023-05-10T09:24:12.569Z,22.00
2023-05-10T09:26:48.927Z,13.40
2023-05-10T09:29:17.944Z,20.10
2023-05-10T09:31:48.223Z,19.40
2023-05-10T09:34:20.497Z,22.60
2023-05-10T09:37:01.072Z,21.00
2023-05-10T09:39:33.072Z,27.70
2023-05-10T09:42:03.983Z,22.90
2023-05-10T09:44:33.153Z,20.80
2023-05-10T09:47:01.648Z,20.60
2023-05-10T09:49:30.484Z,19.80
2023-05-10T09:52:03.226Z,26.00
2023-05-10T09:54:32.281Z,24.50
2023-05-10T09:57:01.035Z,21.30
2023-05-10T09:59:29.946Z,18.00
2023-05-10T10:01:59.231Z,15.70
2023-05-10T10:04:28.178Z,18.90
2023-05-10T10:07:04.103Z,17.30
2023-05-10T10:09:32.743Z,22.70
2023-05-10T10:12:01.726Z,21.60
2023-05-10T10:14:30.348Z,23.30
2023-05-10T10:19:30.114Z,21.50
2023-05-10T10:21:59.340Z,23.40
2023-05-10T10:24:27.621Z,24.90
2023-05-10T10:27:02.531Z,22.80
2023-05-10T10:29:35.474Z,28.50
2023-05-10T10:32:12.417Z,21.20
2023-05-10T10:34:41.304Z,16.60
2023-05-10T10:37:10.011Z,25.00
2023-05-10T10:39:38.396Z,26.40
2023-05-10T10:42:06.843Z,16.50
2023-05-10T10:44:39.221Z,21.20
2023-05-10T10:47:12.299Z,13.00
2023-05-10T10:49:44.420Z,19.50
2023-05-10T10:52:22.935Z,24.50
2023-05-10T10:54:58.344Z,19.70
2023-05-10T10:57:27.220Z,23.40
2023-05-10T11:00:20.281Z,26.90
2023-05-10T11:02:50.471Z,26.50
2023-05-10T11:05:38.830Z,16.00
2023-05-10T11:08:22.115Z,24.10
2023-05-10T11:11:03.982Z,18.50
2023-05-10T11:13:33.816Z,19.70
2023-05-10T11:16:15.525Z,22.00
2023-05-10T11:18:54.285Z,16.40
2023-05-10T11:21:23.234Z,17.60
2023-05-10T11:23:56.539Z,17.10
2023-05-10T11:26:25.913Z,19.60
2023-05-10T11:28:59.457Z,22.40
2023-05-10T11:31:28.190Z,22.00
2023-05-10T11:33:58.000Z,22.00
2023-05-10T11:36:29.406Z,23.30
2023-05-10T11:38:58.297Z,27.90
2023-05-10T11:41:28.942Z,23.00
2023-05-10T11:43:58.105Z,21.90
2023-05-10T11:46:27.628Z,14.00
2023-05-10T11:49:04.269Z,29.10
2023-05-10T11:51:36.030Z,21.10
2023-05-10T11:54:08.314Z,20.10
2023-05-10T11:56:36.887Z,26.60
2023-05-10T11:59:05.278Z,24.90
2023-05-10T12:01:33.841Z,20.00
2023-05-10T12:04:02.469Z,26.50
2023-05-10T12:06:32.125Z,25.80
2023-05-10T12:09:04.139Z,20.70
2023-05-10T12:11:32.512Z,15.90
2023-05-10T12:14:00.918Z,18.20
2023-05-10T12:16:30.958Z,9.30
2023-05-10T12:19:00.441Z,16.10
2023-05-10T12:21:30.738Z,18.60
2023-05-10T12:24:02.177Z,16.10
2023-05-10T12:26:30.905Z,22.40
2023-05-10T12:29:14.583Z,21.80
2023-05-10T12:31:54.681Z,14.70
2023-05-10T12:34:27.491Z,19.10
2023-05-10T12:36:56.192Z,17.40
2023-05-10T12:39:24.744Z,19.80
2023-05-10T12:41:53.484Z,24.10
2023-05-10T12:44:21.848Z,16.50
2023-05-10T12:46:50.131Z,24.90
2023-05-10T12:49:19.248Z,18.00
2023-05-10T12:51:47.590Z,27.60
2023-05-10T12:54:15.910Z,23.10
2023-05-10T12:56:44.551Z,21.80
2023-05-10T12:59:12.781Z,22.70
2023-05-10T13:01:41.368Z,23.20
2023-05-10T13:04:10.172Z,20.10
2023-05-10T13:06:38.594Z,23.00
2023-05-10T13:09:07.309Z,27.00
2023-05-10T13:11:35.917Z,17.40
2023-05-10T13:14:04.396Z,19.40
2023-05-10T13:16:32.947Z,19.70
2023-05-10T13:19:01.323Z,19.70
2023-05-10T13:21:29.818Z,11.90
2023-05-10T13:23:58.376Z,23.40
2023-05-10T13:26:26.985Z,21.00
2023-05-10T13:28:55.924Z,10.50
2023-05-10T13:31:24.608Z,12.10
2023-05-10T13:33:53.221Z,12.90
2023-05-10T13:36:23.136Z,13.10
2023-05-10T13:38:51.672Z,11.80
2023-05-10T13:41:20.131Z,11.00
2023-05-10T13:43:49.677Z,12.70
2023-05-10T13:46:18.172Z,14.50
2023-05-10T13:48:46.615Z,21.60
2023-05-10T13:51:15.053Z,10.00
2023-05-10T13:53:43.494Z,16.70
2023-05-10T13:56:11.952Z,11.40
2023-05-10T13:58:40.290Z,14.70
2023-05-10T14:01:08.773Z,13.60
2023-05-10T14:03:37.525Z,15.40
2023-05-10T14:06:07.751Z,22.20
2023-05-10T14:08:36.853Z,9.90
2023-05-10T14:11:05.915Z,13.30
2023-05-10T14:13:34.166Z,11.50
2023-05-10T14:16:02.600Z,21.60
2023-05-10T14:18:31.396Z,14.70
2023-05-10T14:21:00.253Z,18.70
2023-05-10T14:23:29.315Z,12.30
2023-05-10T14:25:57.945Z,13.10
2023-05-10T14:28:26.527Z,11.10
2023-05-10T14:30:54.981Z,14.20
2023-05-10T14:33:23.395Z,12.40
2023-05-10T14:35:52.539Z,13.70
2023-05-10T14:38:20.991Z,11.30
2023-05-10T14:40:50.072Z,9.00
2023-05-10T14:43:18.508Z,21.30
2023-05-10T14:45:47.908Z,17.00
2023-05-10T14:48:17.816Z,13.30
2023-05-10T14:50:46.848Z,14.30
2023-05-10T14:53:15.060Z,12.30
2023-05-10T14:55:43.829Z,26.50
2023-05-10T14:58:12.193Z,39.50
2023-05-10T15:00:41.180Z,25.50
2023-05-10T15:03:10.393Z,17.50
2023-05-10T15:05:39.502Z,19.40
2023-05-10T15:08:08.029Z,24.00
2023-05-10T15:10:37.060Z,13.00
2023-05-10T15:13:05.961Z,16.40
2023-05-10T15:15:34.477Z,12.90
2023-05-10T15:18:03.020Z,18.70
2023-05-10T15:20:31.633Z,16.40
2023-05-10T15:23:00.048Z,15.30
2023-05-10T15:25:29.151Z,41.50
2023-05-10T15:27:57.357Z,27.30
2023-05-10T15:30:25.778Z,24.00
2023-05-10T15:32:54.462Z,11.70
2023-05-10T15:35:22.718Z,11.40
2023-05-10T15:37:51.131Z,21.40
2023-05-10T15:40:19.761Z,14.90
2023-05-10T15:42:48.103Z,21.70
2023-05-10T15:45:17.098Z,15.90
2023-05-10T15:47:45.754Z,13.10
2023-05-10T15:50:14.938Z,17.70
2023-05-10T15:52:43.271Z,23.20
2023-05-10T15:55:12.876Z,25.80
2023-05-10T15:57:43.403Z,18.80
2023-05-10T16:00:14.292Z,21.30
2023-05-10T16:02:42.926Z,18.70
2023-05-10T16:05:11.713Z,18.30
2023-05-10T16:07:41.054Z,21.90
2023-05-10T16:10:11.519Z,16.80
2023-05-10T16:12:40.736Z,14.10
2023-05-10T16:15:10.817Z,30.50
2023-05-10T16:17:39.317Z,16.70
2023-05-10T16:20:09.707Z,20.90
2023-05-10T16:22:38.491Z,20.00
2023-05-10T16:25:08.285Z,22.00
2023-05-10T16:27:37.606Z,25.20
2023-05-10T16:30:08.520Z,23.70
2023-05-10T16:32:37.052Z,21.70
2023-05-10T16:35:07.557Z,22.30
2023-05-10T16:37:36.290Z,25.80
2023-05-10T16:40:07.213Z,22.70
2023-05-10T16:42:36.366Z,13.70
2023-05-10T16:45:07.189Z,24.50
2023-05-10T16:47:36.369Z,23.60
2023-05-10T16:50:07.085Z,26.80
2023-05-10T16:52:36.265Z,18.80
2023-05-10T16:55:06.058Z,23.40
2023-05-10T16:57:34.672Z,21.30
2023-05-10T17:00:04.591Z,14.30
2023-05-10T17:02:33.212Z,15.20
2023-05-10T17:05:01.907Z,14.50
2023-05-10T17:07:30.290Z,15.60
2023-05-10T17:09:58.778Z,14.30
2023-05-10T17:12:27.034Z,17.70
2023-05-10T17:14:55.650Z,15.50
2023-05-10T17:17:24.683Z,19.70
2023-05-10T17:19:53.190Z,32.20
2023-05-10T17:22:21.718Z,27.20
2023-05-10T17:24:50.442Z,32.30
2023-05-10T17:27:19.004Z,19.40
2023-05-10T17:29:47.336Z,45.80
2023-05-10T17:32:15.899Z,37.30
2023-05-10T17:34:44.232Z,35.30
2023-05-10T17:37:12.675Z,34.90
2023-05-10T17:39:41.434Z,24.80
2023-05-10T17:42:11.191Z,24.10
2023-05-10T17:44:39.711Z,21.60
2023-05-10T17:47:08.279Z,21.60
2023-05-10T17:49:36.682Z,22.10
2023-05-10T17:52:05.000Z,16.20
2023-05-10T17:54:34.567Z,23.20
2023-05-10T17:57:03.392Z,19.10
2023-05-10T17:59:31.831Z,27.50
2023-05-10T18:02:01.017Z,22.80
2023-05-10T18:04:29.542Z,24.40
2023-05-10T18:07:00.704Z,26.60
2023-05-10T18:09:29.648Z,24.90
2023-05-10T18:11:57.897Z,30.70
2023-05-10T18:14:39.175Z,30.70
2023-05-10T18:17:09.799Z,34.50
2023-05-10T18:19:39.358Z,31.00
2023-05-10T18:22:10.700Z,35.00
2023-05-10T18:24:40.351Z,34.60
2023-05-10T18:27:09.246Z,46.10
2023-05-10T18:29:37.832Z,42.40
2023-05-10T18:32:07.260Z,46.90
2023-05-10T18:34:35.641Z,52.20
2023-05-10T18:37:06.577Z,52.60
2023-05-10T18:39:35.236Z,56.90
2023-05-10T18:42:04.482Z,53.00
2023-05-10T18:44:33.070Z,50.40
2023-05-10T18:47:01.557Z,50.80
2023-05-10T18:49:30.139Z,55.00
2023-05-10T18:51:58.369Z,54.10
2023-05-10T18:54:27.065Z,52.80
2023-05-10T18:56:56.649Z,52.40
2023-05-10T18:59:27.092Z,51.80
2023-05-10T19:01:57.118Z,46.10
2023-05-10T19:04:26.179Z,49.60
2023-05-10T19:06:55.164Z,56.70
2023-05-10T19:09:23.903Z,48.60
2023-05-10T19:11:52.501Z,50.20
2023-05-10T19:14:21.066Z,51.00
2023-05-10T19:16:49.806Z,48.80
2023-05-10T19:19:18.473Z,45.40
2023-05-10T19:21:47.692Z,40.80
2023-05-10T19:24:17.353Z,38.60
2023-05-10T19:26:46.839Z,42.40
2023-05-10T19:29:15.485Z,44.70
2023-05-10T19:31:46.337Z,46.60
2023-05-10T19:34:14.827Z,45.00
2023-05-10T19:36:43.162Z,45.10
2023-05-10T19:39:11.615Z,48.70
2023-05-10T19:41:39.985Z,50.50
2023-05-10T19:44:08.324Z,57.80
2023-05-10T19:46:36.659Z,54.70
2023-05-10T19:49:05.077Z,56.90
2023-05-10T19:51:33.295Z,61.30
2023-05-10T19:54:01.621Z,66.60
2023-05-10T19:56:30.002Z,50.10
2023-05-10T19:58:58.767Z,54.20
2023-05-10T20:01:27.149Z,61.00
2023-05-10T20:03:56.227Z,55.10
2023-05-10T20:06:24.481Z,58.50
2023-05-10T20:08:52.693Z,58.60
2023-05-10T20:13:49.366Z,60.50
2023-05-10T20:16:17.788Z,62.40
2023-05-10T20:18:46.224Z,46.70
2023-05-10T20:21:14.587Z,66.70
2023-05-10T20:26:10.811Z,58.50
2023-05-10T20:31:06.589Z,59.10
2023-05-10T20:33:34.965Z,61.60
2023-05-10T20:36:03.486Z,53.30
2023-05-10T20:38:32.024Z,67.10
2023-05-10T20:41:00.375Z,51.30
2023-05-10T20:46:04.369Z,48.30
2023-05-10T20:48:33.116Z,57.90
2023-05-10T20:51:01.924Z,57.90
2023-05-10T20:53:30.794Z,56.30
2023-05-10T20:56:03.724Z,61.20
2023-05-10T20:58:32.948Z,57.40
2023-05-10T21:03:30.190Z,59.50
2023-05-10T21:05:58.768Z,59.60
2023-05-10T21:08:27.249Z,56.00
2023-05-10T21:13:23.353Z,45.50
2023-05-10T21:15:52.811Z,52.90
2023-05-10T21:18:21.709Z,46.40
2023-05-10T21:20:50.490Z,46.00
2023-05-10T21:23:18.806Z,43.20
2023-05-10T21:28:14.636Z,52.40
2023-05-10T21:30:43.211Z,47.90
2023-05-10T21:33:12.233Z,38.70
2023-05-10T21:35:42.084Z,41.30
2023-05-10T21:38:11.191Z,40.70
2023-05-10T21:40:39.706Z,35.50
2023-05-10T21:43:10.620Z,37.40
2023-05-10T21:45:40.727Z,40.90
2023-05-10T21:48:10.009Z,43.40
2023-05-10T21:50:39.337Z,44.90
2023-05-10T21:53:08.601Z,38.00
2023-05-10T21:55:38.333Z,47.80
2023-05-10T21:58:07.815Z,32.90
2023-05-10T22:00:36.235Z,40.70
2023-05-10T22:03:04.799Z,44.40
2023-05-10T22:05:33.802Z,40.70
2023-05-10T22:08:02.675Z,42.10
2023-05-10T22:10:31.086Z,34.50
2023-05-10T22:15:27.810Z,33.90
2023-05-10T22:20:23.673Z,31.10
2023-05-10T22:22:53.370Z,36.50
2023-05-10T22:25:21.805Z,44.70
2023-05-10T22:30:19.176Z,36.00
2023-05-10T22:32:48.088Z,35.50
2023-05-10T22:35:16.722Z,37.50
2023-05-10T22:37:45.747Z,35.60
2023-05-10T22:40:14.280Z,37.20
2023-05-10T22:42:42.668Z,41.90
2023-05-10T22:47:39.518Z,38.20
2023-05-10T22:52:38.213Z,32.30
2023-05-10T22:55:07.938Z,39.40
2023-05-10T22:57:36.383Z,33.90
2023-05-10T23:02:33.227Z,32.60
2023-05-10T23:05:01.742Z,35.30
2023-05-10T23:09:57.573Z,25.10
2023-05-10T23:12:25.861Z,33.80
2023-05-10T23:14:54.254Z,40.00
2023-05-10T23:19:50.740Z,31.30
2023-05-10T23:22:19.301Z,42.10
2023-05-10T23:24:47.681Z,34.10
2023-05-10T23:29:43.458Z,27.30
2023-05-10T23:32:11.903Z,31.70
2023-05-10T23:37:07.661Z,32.60
2023-05-10T23:39:35.990Z,31.50
2023-05-10T23:42:04.581Z,29.00
2023-05-10T23:44:32.865Z,26.10
2023-05-10T23:47:01.209Z,33.20
2023-05-10T23:49:29.511Z,37.80
2023-05-10T23:51:57.851Z,33.20
2023-05-10T23:56:53.723Z,41.70
